Terminal Aerodrome Forecast
Issued by NWS El Paso, TX

Home | Current Version | Previous Version | Text Only | Print | Product List | Glossary On
Versions: 1 2 3 4 5 6 7 8 9 10 11 12 13 14 15 16 17
000
FTUS44 KEPZ 291139
TAFELP
TAF
KELP 291139Z 2912/3012 09007KT P6SM SKC WS010/10035KT
     FM291600 08010KT P6SM FEW060
     FM292200 12010G18KT P6SM VCTS SCT050CB BKN080
     FM300000 13012G22KT 6SM -TSRA BKN050CB BKN080=

USA.gov is the U.S. government's official web portal to all federal, state and local government web resources and services.